Time;durP1;ratioP1;P1;durP2;ratioP2;P2;SDS_P1;SDS_P2;PMS_P1;PMS_P2;Temp;Humidity;BMP_temperature;BMP_pressure;BME280_temperature;BME280_humidity;BME280_pressure;Samples;Min_cycle;Max_cycle;Signal;HPM_P1;HPM_P2
2024/01/14 00:01:36;;;;;;;66.95;22.23;;;;;;;;;;4998659;28;20057;-53
2024/01/14 00:04:02;;;;;;;67.22;22.80;;;;;;;;;;5002676;28;20057;-52
2024/01/14 00:06:28;;;;;;;70.57;21.77;;;;;;;;;;5002728;28;20383;-52
2024/01/14 00:08:54;;;;;;;69.43;22.33;;;;;;;;;;5002864;28;20058;-54
2024/01/14 00:11:21;;;;;;;71.10;21.85;;;;;;;;;;5007886;28;20520;-53
2024/01/14 00:13:47;;;;;;;69.45;21.58;;;;;;;;;;5000946;28;20041;-53
2024/01/14 00:16:13;;;;;;;71.78;23.27;;;;;;;;;;4998341;28;20049;-53
2024/01/14 00:18:39;;;;;;;69.63;23.00;;;;;;;;;;5007479;28;20049;-55
2024/01/14 00:21:05;;;;;;;71.18;23.20;;;;;;;;;;4999873;28;20043;-54
2024/01/14 00:23:31;;;;;;;76.43;22.77;;;;;;;;;;4995137;28;20046;-55
2024/01/14 00:25:57;;;;;;;70.63;22.58;;;;;;;;;;5001660;28;20401;-51
2024/01/14 00:28:23;;;;;;;72.82;24.10;;;;;;;;;;5002089;28;20038;-55
2024/01/14 00:30:49;;;;;;;68.45;23.50;;;;;;;;;;4997594;28;20054;-51
2024/01/14 00:33:15;;;;;;;73.97;21.63;;;;;;;;;;4997533;28;20057;-54
2024/01/14 00:35:42;;;;;;;76.38;23.25;;;;;;;;;;5003423;28;20477;-56
2024/01/14 00:38:08;;;;;;;67.50;22.83;;;;;;;;;;4996340;28;20046;-51
2024/01/14 00:40:34;;;;;;;73.65;21.85;;;;;;;;;;4998000;28;20054;-53
2024/01/14 00:43:01;;;;;;;70.80;21.70;;;;;;;;;;4998783;28;20545;-54
2024/01/14 00:45:27;;;;;;;75.63;23.67;;;;;;;;;;4998390;28;20057;-54
2024/01/14 00:47:53;;;;;;;76.63;22.02;;;;;;;;;;4999727;28;20037;-51
2024/01/14 00:50:19;;;;;;;68.03;21.05;;;;;;;;;;4997671;28;20034;-55
2024/01/14 00:52:45;;;;;;;75.68;23.77;;;;;;;;;;5001968;28;20053;-54
2024/01/14 00:55:11;;;;;;;73.88;22.38;;;;;;;;;;5000339;28;20046;-51
2024/01/14 00:57:37;;;;;;;73.05;22.33;;;;;;;;;;5002552;28;20046;-54
2024/01/14 01:00:05;;;;;;;81.40;24.08;;;;;;;;;;4999172;28;20072;-52
2024/01/14 01:02:31;;;;;;;74.60;22.25;;;;;;;;;;5000103;28;20393;-55
2024/01/14 01:04:57;;;;;;;71.05;22.88;;;;;;;;;;5000526;28;20049;-52
2024/01/14 01:07:24;;;;;;;73.50;21.77;;;;;;;;;;4997867;28;20054;-52
2024/01/14 01:09:50;;;;;;;75.13;23.13;;;;;;;;;;5003180;28;20049;-52
2024/01/14 01:12:16;;;;;;;68.70;22.48;;;;;;;;;;4998429;28;20039;-55
2024/01/14 01:14:43;;;;;;;69.28;22.60;;;;;;;;;;4999755;28;20075;-53
2024/01/14 01:17:09;;;;;;;80.75;23.33;;;;;;;;;;4998409;28;20049;-54
2024/01/14 01:19:36;;;;;;;76.57;24.10;;;;;;;;;;5001095;28;20030;-54
2024/01/14 01:22:02;;;;;;;72.00;23.08;;;;;;;;;;5000602;28;20053;-51
2024/01/14 01:24:28;;;;;;;76.20;21.55;;;;;;;;;;5020073;28;20045;-53
2024/01/14 01:26:54;;;;;;;76.85;22.70;;;;;;;;;;4997171;28;20045;-54
2024/01/14 01:29:21;;;;;;;75.80;23.23;;;;;;;;;;4992659;28;20045;-50
2024/01/14 01:31:47;;;;;;;76.43;22.52;;;;;;;;;;5001434;28;20045;-51
2024/01/14 01:34:13;;;;;;;71.93;21.05;;;;;;;;;;5001198;28;20049;-52
2024/01/14 01:36:40;;;;;;;71.47;22.95;;;;;;;;;;4999151;28;20038;-50
2024/01/14 01:39:06;;;;;;;71.95;23.20;;;;;;;;;;4993376;28;20042;-51
2024/01/14 01:41:32;;;;;;;73.90;22.05;;;;;;;;;;4995362;28;20050;-51
2024/01/14 01:43:58;;;;;;;66.38;20.05;;;;;;;;;;4998142;28;20045;-50
2024/01/14 01:46:24;;;;;;;71.18;20.95;;;;;;;;;;4996562;28;20059;-52
2024/01/14 01:48:50;;;;;;;71.80;21.38;;;;;;;;;;4997208;28;20069;-50
2024/01/14 01:51:16;;;;;;;67.80;21.23;;;;;;;;;;4997188;28;20047;-52
2024/01/14 01:53:43;;;;;;;76.63;21.83;;;;;;;;;;5002140;28;20046;-49
2024/01/14 01:56:10;;;;;;;76.15;22.58;;;;;;;;;;5004529;28;21176;-51
2024/01/14 01:58:36;;;;;;;63.45;20.02;;;;;;;;;;4999506;28;20261;-51
2024/01/14 02:01:05;;;;;;;71.68;21.20;;;;;;;;;;4997695;28;20061;-51
2024/01/14 02:03:33;;;;;;;68.53;19.13;;;;;;;;;;5001784;28;20431;-49
2024/01/14 02:06:01;;;;;;;62.67;20.30;;;;;;;;;;5001467;28;20038;-53
2024/01/14 02:08:27;;;;;;;58.53;20.58;;;;;;;;;;5000240;28;20049;-52
2024/01/14 02:10:53;;;;;;;65.78;20.90;;;;;;;;;;4997137;28;20050;-53
2024/01/14 02:13:20;;;;;;;73.50;22.63;;;;;;;;;;4998394;28;20444;-54
2024/01/14 02:15:46;;;;;;;65.88;20.13;;;;;;;;;;5000949;28;20049;-54
2024/01/14 02:18:12;;;;;;;71.75;22.02;;;;;;;;;;4995877;28;20049;-52
2024/01/14 02:20:38;;;;;;;68.68;20.67;;;;;;;;;;4998225;28;20053;-53
2024/01/14 02:23:07;;;;;;;75.45;22.02;;;;;;;;;;4999061;28;20045;-51
2024/01/14 02:25:34;;;;;;;66.63;21.10;;;;;;;;;;4993608;28;20046;-53
2024/01/14 02:28:00;;;;;;;63.53;20.35;;;;;;;;;;4999972;28;20058;-55
2024/01/14 02:30:27;;;;;;;67.68;19.15;;;;;;;;;;4997754;28;20050;-54
2024/01/14 02:32:54;;;;;;;62.47;19.30;;;;;;;;;;5002140;28;20041;-51
2024/01/14 02:35:20;;;;;;;70.00;19.92;;;;;;;;;;4997347;28;20049;-50
2024/01/14 02:37:47;;;;;;;60.70;18.80;;;;;;;;;;5000864;28;20053;-50
2024/01/14 02:40:14;;;;;;;64.97;20.70;;;;;;;;;;4998893;28;20053;-54
2024/01/14 02:42:40;;;;;;;70.78;19.45;;;;;;;;;;5001300;28;20061;-53
2024/01/14 02:45:07;;;;;;;50.53;17.65;;;;;;;;;;4999628;28;20034;-53
2024/01/14 02:47:33;;;;;;;59.13;19.15;;;;;;;;;;5002760;28;20530;-51
2024/01/14 02:49:59;;;;;;;69.03;20.63;;;;;;;;;;4992543;28;20042;-50
2024/01/14 02:52:25;;;;;;;62.88;20.15;;;;;;;;;;5002044;28;20053;-54
2024/01/14 02:54:51;;;;;;;63.42;19.90;;;;;;;;;;4998276;28;20046;-51
2024/01/14 02:57:17;;;;;;;54.10;17.65;;;;;;;;;;4999858;28;20030;-53
2024/01/14 02:59:43;;;;;;;63.63;19.27;;;;;;;;;;4999868;28;20042;-54
2024/01/14 03:02:09;;;;;;;61.42;18.92;;;;;;;;;;5006754;28;20045;-54
2024/01/14 03:04:36;;;;;;;62.85;20.00;;;;;;;;;;5002084;28;20049;-55
2024/01/14 03:07:02;;;;;;;63.65;19.48;;;;;;;;;;5005673;28;20442;-50
2024/01/14 03:09:28;;;;;;;60.70;19.67;;;;;;;;;;4997415;28;20053;-51
2024/01/14 03:11:54;;;;;;;63.35;21.17;;;;;;;;;;5000555;28;20038;-54
2024/01/14 03:14:20;;;;;;;58.72;19.05;;;;;;;;;;4999617;28;20050;-54
2024/01/14 03:16:46;;;;;;;63.53;19.02;;;;;;;;;;5004964;28;20046;-53
2024/01/14 03:19:12;;;;;;;57.20;18.02;;;;;;;;;;4997982;28;20068;-54
2024/01/14 03:21:38;;;;;;;61.20;18.92;;;;;;;;;;5002206;28;20062;-51
2024/01/14 03:24:05;;;;;;;62.38;19.42;;;;;;;;;;5000951;28;20049;-55
2024/01/14 03:26:31;;;;;;;61.78;20.48;;;;;;;;;;4995432;28;20042;-52
2024/01/14 03:28:57;;;;;;;64.68;19.48;;;;;;;;;;5001779;28;20037;-53
2024/01/14 03:31:23;;;;;;;57.47;17.40;;;;;;;;;;4998878;28;20050;-50
2024/01/14 03:33:49;;;;;;;58.15;18.95;;;;;;;;;;5001512;28;20060;-52
2024/01/14 03:36:15;;;;;;;62.47;18.95;;;;;;;;;;4998222;28;20046;-54
2024/01/14 03:38:41;;;;;;;61.70;19.17;;;;;;;;;;5000630;28;20057;-53
2024/01/14 03:41:08;;;;;;;55.08;18.52;;;;;;;;;;4998049;28;20057;-52
2024/01/14 03:43:34;;;;;;;70.45;21.48;;;;;;;;;;5002462;28;20413;-55
2024/01/14 03:46:00;;;;;;;63.33;20.73;;;;;;;;;;5006129;28;20050;-53
2024/01/14 03:48:26;;;;;;;69.35;21.08;;;;;;;;;;4996871;28;20062;-56
2024/01/14 03:50:52;;;;;;;62.13;20.67;;;;;;;;;;5000525;28;20042;-53
2024/01/14 03:53:18;;;;;;;73.35;21.98;;;;;;;;;;5000810;28;20042;-52
2024/01/14 03:55:47;;;;;;;70.35;21.88;;;;;;;;;;5002078;28;20054;-52
2024/01/14 03:58:13;;;;;;;70.78;21.23;;;;;;;;;;5005920;28;20402;-52
2024/01/14 04:00:39;;;;;;;65.50;21.60;;;;;;;;;;4998869;28;20068;-53
2024/01/14 04:03:05;;;;;;;68.05;20.13;;;;;;;;;;5002333;28;20065;-50
2024/01/14 04:05:31;;;;;;;71.95;21.30;;;;;;;;;;5000293;28;20050;-50
2024/01/14 04:07:57;;;;;;;78.57;23.65;;;;;;;;;;5004286;28;20046;-54
2024/01/14 04:10:23;;;;;;;76.07;22.92;;;;;;;;;;4999640;28;20049;-53
2024/01/14 04:12:49;;;;;;;74.43;21.52;;;;;;;;;;4999745;28;20407;-53
2024/01/14 04:15:20;;;;;;;75.50;23.55;;;;;;;;;;4997949;28;20049;-52
2024/01/14 04:17:46;;;;;;;79.93;23.02;;;;;;;;;;4990997;28;20055;-53
2024/01/14 04:20:13;;;;;;;82.40;22.30;;;;;;;;;;5004663;28;20057;-55
2024/01/14 04:22:39;;;;;;;71.25;21.10;;;;;;;;;;4996655;28;20035;-55
2024/01/14 04:25:05;;;;;;;72.45;21.40;;;;;;;;;;4999605;28;20050;-53
2024/01/14 04:27:32;;;;;;;77.80;23.00;;;;;;;;;;5003763;28;20153;-54
2024/01/14 04:29:58;;;;;;;76.57;23.73;;;;;;;;;;5004821;28;20057;-54
2024/01/14 04:32:24;;;;;;;74.97;22.33;;;;;;;;;;5003530;28;20042;-54
2024/01/14 04:34:50;;;;;;;70.43;21.98;;;;;;;;;;4999842;28;20042;-53
2024/01/14 04:37:16;;;;;;;79.13;23.38;;;;;;;;;;5000580;28;20406;-54
2024/01/14 04:39:42;;;;;;;73.35;21.95;;;;;;;;;;5000336;28;20054;-54
2024/01/14 04:42:08;;;;;;;80.68;23.08;;;;;;;;;;4996630;28;20042;-53
2024/01/14 04:44:34;;;;;;;69.05;22.20;;;;;;;;;;5002280;28;20061;-53
2024/01/14 04:47:00;;;;;;;71.32;23.20;;;;;;;;;;4996714;28;20054;-53
2024/01/14 04:49:26;;;;;;;78.18;21.13;;;;;;;;;;4992989;28;20510;-51
2024/01/14 04:51:52;;;;;;;63.65;19.70;;;;;;;;;;5002573;28;20414;-52
2024/01/14 04:54:18;;;;;;;71.22;21.55;;;;;;;;;;5000791;28;20131;-54
2024/01/14 04:56:45;;;;;;;63.22;20.35;;;;;;;;;;5000437;28;20401;-55
2024/01/14 04:59:11;;;;;;;62.22;19.50;;;;;;;;;;5007885;28;20425;-54
2024/01/14 05:01:37;;;;;;;69.78;21.02;;;;;;;;;;5003737;28;20034;-53
2024/01/14 05:04:04;;;;;;;64.72;20.30;;;;;;;;;;5001796;28;20042;-54
2024/01/14 05:06:30;;;;;;;68.43;21.95;;;;;;;;;;5003850;28;20521;-51
2024/01/14 05:08:56;;;;;;;67.53;21.00;;;;;;;;;;4995852;28;20038;-53
2024/01/14 05:11:22;;;;;;;62.75;19.60;;;;;;;;;;4996912;28;20517;-52
2024/01/14 05:13:48;;;;;;;68.22;21.35;;;;;;;;;;5001683;28;20049;-53
2024/01/14 05:16:14;;;;;;;62.92;21.10;;;;;;;;;;4998232;28;20042;-53
2024/01/14 05:18:41;;;;;;;54.70;19.50;;;;;;;;;;4995317;28;20050;-52
2024/01/14 05:21:07;;;;;;;64.93;20.58;;;;;;;;;;5000196;28;20611;-51
2024/01/14 05:23:33;;;;;;;64.22;21.35;;;;;;;;;;4999278;28;20568;-51
2024/01/14 05:26:02;;;;;;;72.40;19.40;;;;;;;;;;5013775;28;20049;-50
2024/01/14 05:28:28;;;;;;;63.55;21.25;;;;;;;;;;5000393;28;20050;-52
2024/01/14 05:30:54;;;;;;;63.95;18.70;;;;;;;;;;5000481;28;20492;-53
2024/01/14 05:33:21;;;;;;;62.78;20.00;;;;;;;;;;4995787;28;20509;-53
2024/01/14 05:35:47;;;;;;;57.60;20.42;;;;;;;;;;4999410;28;20065;-51
2024/01/14 05:38:13;;;;;;;68.90;20.48;;;;;;;;;;4996808;28;20054;-54
2024/01/14 05:40:39;;;;;;;63.90;19.83;;;;;;;;;;4997893;28;20045;-55
2024/01/14 05:43:06;;;;;;;70.05;20.88;;;;;;;;;;4997161;28;20038;-51
2024/01/14 05:45:32;;;;;;;66.70;21.20;;;;;;;;;;4998316;28;20045;-51
2024/01/14 05:47:58;;;;;;;76.22;23.05;;;;;;;;;;4998068;28;20038;-52
2024/01/14 05:50:24;;;;;;;62.92;20.33;;;;;;;;;;5002680;28;20054;-50
2024/01/14 05:52:50;;;;;;;68.32;19.98;;;;;;;;;;5001812;28;20042;-51
2024/01/14 05:55:16;;;;;;;66.18;20.30;;;;;;;;;;4999165;28;20054;-53
2024/01/14 05:57:42;;;;;;;59.00;18.65;;;;;;;;;;5003011;28;20049;-53
2024/01/14 06:00:09;;;;;;;73.53;20.88;;;;;;;;;;4999794;28;20721;-52
2024/01/14 06:02:35;;;;;;;64.40;19.95;;;;;;;;;;5000803;28;20038;-53
2024/01/14 06:05:01;;;;;;;72.65;21.85;;;;;;;;;;5001418;28;20050;-50
2024/01/14 06:07:28;;;;;;;70.80;20.10;;;;;;;;;;4995373;28;20049;-55
2024/01/14 06:09:54;;;;;;;73.22;23.50;;;;;;;;;;4996623;28;20046;-58
2024/01/14 06:12:20;;;;;;;81.68;24.63;;;;;;;;;;4996697;28;20042;-56
2024/01/14 06:14:46;;;;;;;69.80;21.25;;;;;;;;;;4996559;28;20418;-55
2024/01/14 06:17:12;;;;;;;61.88;20.38;;;;;;;;;;4997748;28;20049;-54
2024/01/14 06:19:41;;;;;;;57.20;19.10;;;;;;;;;;4994257;28;20418;-56
2024/01/14 06:22:07;;;;;;;57.67;20.17;;;;;;;;;;4997176;28;20049;-55
2024/01/14 06:24:33;;;;;;;95.53;35.00;;;;;;;;;;4996025;28;20042;-55
2024/01/14 06:26:59;;;;;;;97.60;34.45;;;;;;;;;;5000636;28;20046;-54
2024/01/14 06:29:25;;;;;;;93.35;32.75;;;;;;;;;;5000044;28;20034;-55
2024/01/14 06:31:51;;;;;;;88.10;31.27;;;;;;;;;;4999227;28;20041;-55
2024/01/14 06:34:17;;;;;;;77.35;25.20;;;;;;;;;;4999224;28;20043;-54
2024/01/14 06:36:43;;;;;;;68.20;21.52;;;;;;;;;;5001569;28;20046;-55
2024/01/14 06:39:09;;;;;;;64.13;19.42;;;;;;;;;;5014180;28;20418;-55
2024/01/14 06:41:36;;;;;;;72.68;21.05;;;;;;;;;;4998321;28;20053;-54
2024/01/14 06:44:02;;;;;;;81.78;21.00;;;;;;;;;;5000890;28;20060;-56
2024/01/14 06:46:28;;;;;;;76.15;22.63;;;;;;;;;;5002009;28;20395;-56
2024/01/14 06:48:54;;;;;;;62.72;19.08;;;;;;;;;;5000572;28;20041;-56
2024/01/14 06:51:20;;;;;;;157.38;41.35;;;;;;;;;;5003864;28;20050;-56
2024/01/14 06:53:46;;;;;;;138.55;39.40;;;;;;;;;;5002918;28;20026;-54
2024/01/14 06:56:16;;;;;;;105.53;28.23;;;;;;;;;;5001062;28;20054;-55
2024/01/14 06:58:42;;;;;;;96.45;27.13;;;;;;;;;;5000196;28;20423;-55
2024/01/14 07:01:08;;;;;;;92.30;25.80;;;;;;;;;;5005299;28;20058;-54
2024/01/14 07:03:34;;;;;;;93.72;24.73;;;;;;;;;;5002248;28;20038;-55
2024/01/14 07:06:00;;;;;;;79.38;21.90;;;;;;;;;;5001038;28;20034;-55
2024/01/14 07:08:26;;;;;;;65.55;19.17;;;;;;;;;;5000168;28;20061;-55
2024/01/14 07:10:52;;;;;;;63.00;19.85;;;;;;;;;;5002129;28;20422;-55
2024/01/14 07:13:19;;;;;;;66.32;17.50;;;;;;;;;;5000718;28;20054;-57
2024/01/14 07:15:45;;;;;;;64.43;18.05;;;;;;;;;;5002528;28;20044;-54
2024/01/14 07:18:12;;;;;;;69.72;19.08;;;;;;;;;;4999816;28;20049;-54
2024/01/14 07:20:40;;;;;;;61.17;19.15;;;;;;;;;;5002197;28;20054;-53
2024/01/14 07:23:06;;;;;;;64.25;20.45;;;;;;;;;;5003176;28;20030;-59
2024/01/14 07:25:32;;;;;;;72.03;17.80;;;;;;;;;;5004177;28;20060;-54
2024/01/14 07:27:58;;;;;;;70.18;19.40;;;;;;;;;;5004615;28;20042;-54
2024/01/14 07:30:24;;;;;;;61.83;17.95;;;;;;;;;;4996752;28;20506;-56
2024/01/14 07:32:51;;;;;;;76.10;21.13;;;;;;;;;;5003773;28;20052;-55
2024/01/14 07:35:17;;;;;;;64.97;19.30;;;;;;;;;;4997389;28;20046;-55
2024/01/14 07:37:43;;;;;;;80.40;22.13;;;;;;;;;;5001864;28;20053;-56
2024/01/14 07:40:09;;;;;;;81.75;24.35;;;;;;;;;;4996808;28;20053;-55
2024/01/14 07:42:36;;;;;;;78.38;22.38;;;;;;;;;;5007508;28;20046;-54
2024/01/14 07:45:03;;;;;;;72.35;22.02;;;;;;;;;;5001505;28;20414;-51
2024/01/14 07:47:29;;;;;;;61.60;18.27;;;;;;;;;;4999928;28;20053;-55
2024/01/14 07:49:55;;;;;;;72.78;20.17;;;;;;;;;;4998171;28;20049;-52
2024/01/14 07:52:21;;;;;;;81.60;21.50;;;;;;;;;;4996190;28;20073;-53
2024/01/14 07:54:48;;;;;;;64.53;18.25;;;;;;;;;;4999792;28;20050;-55
2024/01/14 07:57:14;;;;;;;68.30;21.25;;;;;;;;;;4996140;28;20057;-53
2024/01/14 07:59:40;;;;;;;66.05;20.33;;;;;;;;;;5003922;28;20052;-55
2024/01/14 08:02:07;;;;;;;77.57;21.60;;;;;;;;;;4999805;28;20064;-54
2024/01/14 08:04:33;;;;;;;68.47;20.50;;;;;;;;;;5017027;28;20498;-54
2024/01/14 08:06:59;;;;;;;72.43;21.77;;;;;;;;;;4998747;28;20409;-56
2024/01/14 08:09:25;;;;;;;74.38;21.50;;;;;;;;;;5014954;28;20037;-56
2024/01/14 08:11:51;;;;;;;63.67;20.10;;;;;;;;;;4973049;28;20042;-53
2024/01/14 08:14:17;;;;;;;74.45;21.35;;;;;;;;;;5002937;28;20053;-54
2024/01/14 08:16:43;;;;;;;73.07;18.75;;;;;;;;;;5018326;28;20035;-54
2024/01/14 08:19:10;;;;;;;76.72;20.02;;;;;;;;;;4997790;28;20053;-55
2024/01/14 08:21:36;;;;;;;75.50;20.15;;;;;;;;;;5001791;28;20042;-53
2024/01/14 08:24:03;;;;;;;58.75;19.73;;;;;;;;;;4998629;28;20068;-54
2024/01/14 08:26:30;;;;;;;74.07;20.35;;;;;;;;;;4996604;28;20042;-54
2024/01/14 08:28:56;;;;;;;57.83;18.70;;;;;;;;;;5000528;28;20149;-54
2024/01/14 08:31:22;;;;;;;62.30;19.40;;;;;;;;;;4996529;28;20046;-54
2024/01/14 08:33:48;;;;;;;68.57;18.65;;;;;;;;;;5002669;28;20040;-53
2024/01/14 08:36:14;;;;;;;68.25;18.50;;;;;;;;;;5016994;28;20038;-56
2024/01/14 08:38:41;;;;;;;64.45;19.10;;;;;;;;;;5018159;28;20042;-54
2024/01/14 08:41:07;;;;;;;59.85;19.00;;;;;;;;;;5001559;28;20053;-51
2024/01/14 08:43:33;;;;;;;59.42;18.50;;;;;;;;;;5000226;28;20584;-53
2024/01/14 08:46:01;;;;;;;59.40;18.23;;;;;;;;;;4997253;28;20033;-57
2024/01/14 08:48:27;;;;;;;66.68;19.25;;;;;;;;;;5004477;28;20398;-55
2024/01/14 08:50:53;;;;;;;64.72;19.15;;;;;;;;;;5006834;28;20413;-55
2024/01/14 08:53:20;;;;;;;65.68;18.70;;;;;;;;;;5000428;28;20041;-54
2024/01/14 08:55:46;;;;;;;60.38;18.65;;;;;;;;;;4996526;28;20053;-54
2024/01/14 08:58:12;;;;;;;61.35;18.92;;;;;;;;;;5001645;28;20039;-55
2024/01/14 09:00:38;;;;;;;64.05;20.25;;;;;;;;;;4997976;28;20045;-55
2024/01/14 09:03:05;;;;;;;69.43;18.77;;;;;;;;;;4996017;28;20354;-53
2024/01/14 09:05:31;;;;;;;64.38;19.13;;;;;;;;;;4991728;28;20047;-56
2024/01/14 09:07:57;;;;;;;69.78;19.58;;;;;;;;;;4997548;28;20049;-55
2024/01/14 09:10:23;;;;;;;59.65;18.02;;;;;;;;;;4998665;28;20034;-55
2024/01/14 09:12:49;;;;;;;62.05;17.88;;;;;;;;;;4996819;28;20328;-56
2024/01/14 09:15:15;;;;;;;52.78;18.10;;;;;;;;;;5020609;28;20045;-55
2024/01/14 09:17:41;;;;;;;55.10;17.95;;;;;;;;;;5000732;28;20045;-54
2024/01/14 09:20:08;;;;;;;62.33;17.63;;;;;;;;;;4995939;28;20045;-54
2024/01/14 09:22:34;;;;;;;64.70;18.75;;;;;;;;;;5001141;28;20038;-55
2024/01/14 09:25:01;;;;;;;57.05;19.52;;;;;;;;;;5003895;28;20044;-56
2024/01/14 09:27:30;;;;;;;64.22;18.63;;;;;;;;;;4996173;28;20398;-53
2024/01/14 09:29:56;;;;;;;58.97;17.92;;;;;;;;;;4995966;28;20042;-54
2024/01/14 09:32:23;;;;;;;60.30;18.27;;;;;;;;;;4997918;28;20034;-54
2024/01/14 09:34:49;;;;;;;50.42;16.13;;;;;;;;;;5002818;28;20061;-55
2024/01/14 09:37:15;;;;;;;63.65;19.83;;;;;;;;;;4994907;28;20039;-55
2024/01/14 09:39:41;;;;;;;55.95;19.48;;;;;;;;;;5003872;28;20042;-56
2024/01/14 09:42:44;;;;;;;58.08;18.15;;;;;;;;;;5000706;28;20038;-55
2024/01/14 09:45:11;;;;;;;54.20;18.33;;;;;;;;;;5004155;28;20061;-56
2024/01/14 09:47:38;;;;;;;56.72;17.77;;;;;;;;;;5001374;28;20038;-55
2024/01/14 09:50:06;;;;;;;53.03;17.85;;;;;;;;;;5000334;28;20054;-56
2024/01/14 09:52:37;;;;;;;52.10;17.92;;;;;;;;;;4999672;28;20410;-54
2024/01/14 09:55:03;;;;;;;49.00;16.80;;;;;;;;;;5000094;28;20039;-56
2024/01/14 09:57:30;;;;;;;51.72;15.90;;;;;;;;;;5000853;28;20475;-55
2024/01/14 10:00:03;;;;;;;52.95;17.67;;;;;;;;;;4996016;28;20034;-56
2024/01/14 10:02:34;;;;;;;47.63;15.95;;;;;;;;;;5005222;28;20073;-55
2024/01/14 10:05:01;;;;;;;;;;;;;;;;;;5020786;28;20049;-55
2024/01/14 10:07:27;;;;;;;45.90;16.25;;;;;;;;;;5003971;28;19914;-57
2024/01/14 10:09:53;;;;;;;49.00;17.30;;;;;;;;;;5005159;28;20041;-55
2024/01/14 10:12:20;;;;;;;48.47;16.75;;;;;;;;;;5002793;28;20486;-55
2024/01/14 10:14:56;;;;;;;45.33;16.88;;;;;;;;;;5006547;28;20034;-55
2024/01/14 10:17:23;;;;;;;41.22;13.93;;;;;;;;;;4990716;28;20399;-57
2024/01/14 10:19:53;;;;;;;39.28;14.45;;;;;;;;;;5002810;28;20046;-57
2024/01/14 10:22:21;;;;;;;48.63;15.77;;;;;;;;;;5009389;28;20386;-57
2024/01/14 10:24:56;;;;;;;47.75;16.08;;;;;;;;;;5005610;28;20049;-58
2024/01/14 10:27:24;;;;;;;44.60;16.08;;;;;;;;;;5009514;28;20569;-54
2024/01/14 10:29:51;;;;;;;39.72;15.73;;;;;;;;;;5003924;28;20045;-58
2024/01/14 10:32:18;;;;;;;43.75;16.48;;;;;;;;;;4999476;28;20042;-57
2024/01/14 10:34:45;;;;;;;44.80;16.40;;;;;;;;;;5004678;28;20049;-54
2024/01/14 10:37:12;;;;;;;42.33;15.07;;;;;;;;;;5009760;28;20046;-55
2024/01/14 10:39:40;;;;;;;42.08;15.43;;;;;;;;;;4999727;28;20387;-56
2024/01/14 10:42:06;;;;;;;42.35;15.93;;;;;;;;;;5001578;28;20042;-55
2024/01/14 10:44:32;;;;;;;39.47;15.00;;;;;;;;;;5006837;28;20042;-56
2024/01/14 10:47:03;;;;;;;39.00;15.15;;;;;;;;;;5005606;28;20052;-55
2024/01/14 10:49:30;;;;;;;40.40;15.52;;;;;;;;;;5007448;28;20504;-56
2024/01/14 10:52:08;;;;;;;41.00;16.23;;;;;;;;;;5024570;28;20060;-56
2024/01/14 10:54:39;;;;;;;45.55;15.77;;;;;;;;;;5001040;28;20061;-57
2024/01/14 10:57:19;;;;;;;38.60;15.25;;;;;;;;;;5007371;28;20414;-56
2024/01/14 10:59:48;;;;;;;38.60;15.68;;;;;;;;;;5006243;28;20057;-55
2024/01/14 11:02:19;;;;;;;45.40;17.67;;;;;;;;;;5003699;28;20050;-55
2024/01/14 11:04:45;;;;;;;43.35;16.35;;;;;;;;;;5002513;28;20054;-56
2024/01/14 11:07:12;;;;;;;43.03;16.73;;;;;;;;;;5004064;28;20049;-57
2024/01/14 11:09:43;;;;;;;45.15;17.42;;;;;;;;;;5011735;28;20096;-57
2024/01/14 11:12:24;;;;;;;53.58;19.50;;;;;;;;;;5001915;28;20521;-57
2024/01/14 11:15:06;;;;;;;53.90;19.60;;;;;;;;;;5001237;28;20041;-57
2024/01/14 11:17:38;;;;;;;48.60;19.38;;;;;;;;;;4998041;28;20041;-56
2024/01/14 11:20:06;;;;;;;52.40;19.35;;;;;;;;;;5003518;28;20038;-55
2024/01/14 11:22:33;;;;;;;49.53;18.88;;;;;;;;;;4996189;28;20034;-57
2024/01/14 11:24:59;;;;;;;43.72;18.23;;;;;;;;;;5000447;28;20041;-57
2024/01/14 11:27:25;;;;;;;46.83;19.02;;;;;;;;;;4999032;28;20042;-58
2024/01/14 11:29:52;;;;;;;51.55;19.48;;;;;;;;;;4991116;28;20045;-55
2024/01/14 11:32:21;;;;;;;45.55;18.50;;;;;;;;;;4999254;28;20068;-57
2024/01/14 11:34:50;;;;;;;45.63;19.13;;;;;;;;;;4998337;28;20041;-57
2024/01/14 11:37:29;;;;;;;;;;;;;;;;;;5000849;28;20413;-57
2024/01/14 11:40:07;;;;;;;46.05;19.42;;;;;;;;;;5008446;28;19921;-57
2024/01/14 11:42:43;;;;;;;44.13;19.07;;;;;;;;;;4999560;28;20424;-57
2024/01/14 11:45:24;;;;;;;46.38;19.92;;;;;;;;;;5001939;28;20042;-56
2024/01/14 11:47:51;;;;;;;47.78;19.75;;;;;;;;;;4977522;28;20045;-57
2024/01/14 11:50:21;;;;;;;44.92;19.63;;;;;;;;;;4995468;28;20042;-57
2024/01/14 11:52:49;;;;;;;47.97;19.98;;;;;;;;;;5001683;28;20073;-54
2024/01/14 11:55:29;;;;;;;48.22;19.48;;;;;;;;;;5009302;28;20068;-57
2024/01/14 11:57:55;;;;;;;;;;;;;;;;;;4997280;28;20044;-57
2024/01/14 12:00:26;;;;;;;43.15;17.98;;;;;;;;;;4997006;28;19986;-56
2024/01/14 12:03:14;;;;;;;43.88;18.20;;;;;;;;;;5002612;28;20501;-57
2024/01/14 12:05:40;;;;;;;43.97;18.65;;;;;;;;;;4997574;28;20037;-57
2024/01/14 12:08:08;;;;;;;44.47;17.95;;;;;;;;;;4996540;28;20034;-57
2024/01/14 12:10:35;;;;;;;38.80;17.52;;;;;;;;;;4997858;28;20046;-57
2024/01/14 12:13:03;;;;;;;44.83;17.42;;;;;;;;;;5016724;28;20031;-59
2024/01/14 12:15:29;;;;;;;43.38;19.48;;;;;;;;;;5018318;28;20038;-58
2024/01/14 12:17:57;;;;;;;44.00;19.73;;;;;;;;;;4997472;28;20041;-58
2024/01/14 12:20:25;;;;;;;45.05;19.00;;;;;;;;;;4984905;28;20046;-58
2024/01/14 12:22:56;;;;;;;41.55;17.80;;;;;;;;;;4999868;28;20401;-58
2024/01/14 12:25:22;;;;;;;40.88;18.35;;;;;;;;;;4998190;28;20034;-58
2024/01/14 12:27:49;;;;;;;45.40;18.10;;;;;;;;;;5017008;28;20034;-58
2024/01/14 12:30:34;;;;;;;39.03;17.92;;;;;;;;;;4999972;28;20617;-58
2024/01/14 12:33:08;;;;;;;43.35;18.48;;;;;;;;;;4997328;28;20041;-58
2024/01/14 12:35:38;;;;;;;42.45;19.23;;;;;;;;;;5000845;28;20041;-58
2024/01/14 12:38:06;;;;;;;38.67;18.88;;;;;;;;;;5000246;28;20049;-58
2024/01/14 12:40:33;;;;;;;44.90;19.33;;;;;;;;;;4999889;28;20061;-57
2024/01/14 12:43:00;;;;;;;44.03;19.95;;;;;;;;;;5004828;28;20042;-58
2024/01/14 12:45:27;;;;;;;43.72;19.55;;;;;;;;;;5000565;28;20413;-57
2024/01/14 12:48:00;;;;;;;41.92;19.63;;;;;;;;;;4986316;28;20033;-57
2024/01/14 12:50:28;;;;;;;43.38;19.75;;;;;;;;;;5003071;28;20497;-58
2024/01/14 12:53:02;;;;;;;41.90;20.58;;;;;;;;;;4995112;28;20053;-57
2024/01/14 12:55:30;;;;;;;42.08;19.70;;;;;;;;;;5001462;28;20034;-57
2024/01/14 12:57:58;;;;;;;45.25;20.13;;;;;;;;;;4997283;28;20046;-57
2024/01/14 13:00:24;;;;;;;44.92;19.13;;;;;;;;;;4998990;28;20046;-58
2024/01/14 13:02:51;;;;;;;45.75;20.73;;;;;;;;;;4997629;28;20072;-57
2024/01/14 13:05:17;;;;;;;41.35;20.70;;;;;;;;;;4999298;28;20065;-57
2024/01/14 13:07:43;;;;;;;43.95;19.88;;;;;;;;;;4998799;28;20052;-58
2024/01/14 13:10:09;;;;;;;43.33;20.02;;;;;;;;;;5014262;28;20045;-58
2024/01/14 13:12:35;;;;;;;47.55;19.95;;;;;;;;;;4991681;28;20052;-58
2024/01/14 13:15:02;;;;;;;45.90;19.98;;;;;;;;;;4999675;28;20046;-58
2024/01/14 13:17:29;;;;;;;41.40;20.08;;;;;;;;;;5000242;28;20085;-57
2024/01/14 13:19:55;;;;;;;39.20;18.80;;;;;;;;;;4995504;28;20045;-57
2024/01/14 13:22:22;;;;;;;40.88;18.83;;;;;;;;;;5005397;28;20045;-58
2024/01/14 13:24:48;;;;;;;41.03;18.38;;;;;;;;;;4999800;28;20057;-57
2024/01/14 13:27:14;;;;;;;34.42;17.65;;;;;;;;;;5004062;28;20053;-58
2024/01/14 13:29:41;;;;;;;41.67;17.98;;;;;;;;;;5014902;28;20034;-58
2024/01/14 13:32:07;;;;;;;35.13;17.70;;;;;;;;;;4998526;28;20047;-58
2024/01/14 13:34:33;;;;;;;35.88;17.70;;;;;;;;;;5002533;28;20053;-57
2024/01/14 13:36:59;;;;;;;37.47;17.60;;;;;;;;;;4995969;28;20041;-58
2024/01/14 13:39:26;;;;;;;38.78;17.55;;;;;;;;;;4998010;28;20041;-58
2024/01/14 13:41:52;;;;;;;38.45;19.60;;;;;;;;;;4999183;28;20038;-58
2024/01/14 13:44:18;;;;;;;42.45;20.35;;;;;;;;;;4994799;28;20045;-57
2024/01/14 13:46:48;;;;;;;37.40;18.77;;;;;;;;;;4999866;28;20053;-58
2024/01/14 13:49:15;;;;;;;39.00;18.85;;;;;;;;;;4993625;28;20057;-58
2024/01/14 13:51:42;;;;;;;38.40;18.67;;;;;;;;;;4999002;28;20050;-59
2024/01/14 13:54:11;;;;;;;37.67;18.45;;;;;;;;;;4999408;28;20045;-58
2024/01/14 13:56:39;;;;;;;42.58;19.98;;;;;;;;;;5008042;28;20630;-59
2024/01/14 13:59:05;;;;;;;32.72;17.45;;;;;;;;;;4996246;28;20501;-59
2024/01/14 14:01:31;;;;;;;41.58;19.58;;;;;;;;;;4996604;28;21395;-58
2024/01/14 14:03:58;;;;;;;37.83;18.60;;;;;;;;;;4997111;28;20041;-59
2024/01/14 14:06:24;;;;;;;41.13;20.70;;;;;;;;;;5000091;28;20387;-58
2024/01/14 14:08:52;;;;;;;43.58;21.05;;;;;;;;;;4999019;28;20053;-59
2024/01/14 14:11:19;;;;;;;45.05;20.20;;;;;;;;;;4998846;28;20030;-59
2024/01/14 14:13:45;;;;;;;39.47;18.30;;;;;;;;;;4994130;28;20046;-59
2024/01/14 14:16:11;;;;;;;36.75;16.48;;;;;;;;;;5003876;28;20049;-58
2024/01/14 14:18:37;;;;;;;30.83;15.48;;;;;;;;;;4994913;28;20049;-59